Bryson City, North Carolina
Current Conditions -  °F | °C
As of 7:55 AM on Saturday 20 Dec 2014 (Local Time) from KRHP Reporting Station
Overcast Overcast  
Wind Chill: 38°   Ceiling: 2900
Heat Index: 38°   Visibility: 7mi
Dew Point: 38°   Wind: 0mph
Humidity: 98%   Direction: NA
Pressure: 30.17"   Gusts: NA
Location:  35.43°N, 83.45°W
Report Text: KRHP 201255Z AUTO 00000KT 7SM BKN029 OVC036 04/03 A3017 RMK AO2 T00350032
Loading
Personal Weather Stations






























Interactive Weather Map New forecast layout! Learn more

10-Day Weather Forecast

Advertisements
Track Severe Weather on mobile